Empire — PD5101 — position and weather

sailwx.info

Track history (hours):
 
Tides and Currents Weather Stations Pressure Air Temp Water Temp Dewpoint Dewpoint Depression Visibility Wind Speed Wind Dir Waves Ship Positions

Empire

Last reported at 2015-Jan-29 08:08 UTC. Time now 2015-Jan-29 18:29 UTC.
Position N 50°54' E 007°00'.

Length 183 m; draft 3 m.

Type: Ship. MMSI: 244670090.

Date/timePositionNaut miles runAvg speedWind from/ knotsBaromVisibWave heightAir tempDewpointWater temp
2015-Jan-29 08:08N 50°54' E 007°00'2 4.2
2015-Jan-29 07:33N 50°56' E 006°58'11 3.4
2015-Jan-29 04:24N 51°06' E 006°53'3 3.8
2015-Jan-29 03:31N 51°09' E 006°51'2 2.5
2015-Jan-29 02:33N 51°09' E 006°48'3 3.3
2015-Jan-29 01:34N 51°12' E 006°44'2 2.4
2015-Jan-29 00:33N 51°14' E 006°46'4 3.9
2015-Jan-28 23:33N 51°17' E 006°42'4 3.6
2015-Jan-28 22:29N 51°20' E 006°42'47 3.3
2015-Jan-28 08:19N 51°53' E 005°47'5 6.3
2015-Jan-28 07:32N 51°54' E 005°40'6 6.2
2015-Jan-28 06:33N 51°53' E 005°30'3 3.4
2015-Jan-28 05:34N 51°55' E 005°25'5 4.8
2015-Jan-28 04:34N 51°58' E 005°19'7 6.7
2015-Jan-28 03:34N 52°01' E 005°09'7 6.7
2015-Jan-28 02:34N 52°07' E 005°04'6 6.2
2015-Jan-28 01:33N 52°13' E 005°00'7 7.0
2015-Jan-28 00:34N 52°19' E 005°01'7 6.6
2015-Jan-27 23:34N 52°24' E 004°53'2 2.4
2015-Jan-27 22:34N 52°24' E 004°49'0 0.0
2015-Jan-27 21:34N 52°24' E 004°49'0 0.0
2015-Jan-27 20:33N 52°24' E 004°49'0 0.0
2015-Jan-27 19:33N 52°24' E 004°49'0 0.0
2015-Jan-27 18:34N 52°24' E 004°49'0 0.0
2015-Jan-27 17:33N 52°24' E 004°49'0 0.0
2015-Jan-27 16:33N 52°24' E 004°49'0 0.3
2015-Jan-27 15:34N 52°24' E 004°50'0 0.0
2015-Jan-27 14:33N 52°24' E 004°50'0 0.0
2015-Jan-27 13:34N 52°24' E 004°50'0 0.0
2015-Jan-27 12:33N 52°24' E 004°50'0 0.0
2015-Jan-27 11:34N 52°24' E 004°50'0 0.0
2015-Jan-27 10:33N 52°24' E 004°50'0 0.0
2015-Jan-27 09:33N 52°24' E 004°50'0 0.0
2015-Jan-27 08:33N 52°24' E 004°50'0 0.0
2015-Jan-27 07:34N 52°24' E 004°50'0 0.0
2015-Jan-27 06:34N 52°24' E 004°50'0 0.0
2015-Jan-27 05:33N 52°24' E 004°50'0 0.0
2015-Jan-27 04:34N 52°24' E 004°50'0 0.0
2015-Jan-27 03:34N 52°24' E 004°50'0 0.0
2015-Jan-27 02:34N 52°24' E 004°50'0 0.0
2015-Jan-27 01:34N 52°24' E 004°50'0 0.0
2015-Jan-27 00:33N 52°24' E 004°50'0 0.0
2015-Jan-26 23:33N 52°24' E 004°50'0 0.0
2015-Jan-26 22:33N 52°24' E 004°50'0 0.0
2015-Jan-26 21:33N 52°24' E 004°50'3 2.9
2015-Jan-26 20:33N 52°23' E 004°54'7 6.7
2015-Jan-26 19:33N 52°18' E 005°01'8 8.4
2015-Jan-26 18:33N 52°10' E 004°60'8 8.1
2015-Jan-26 17:33N 52°03' E 005°06'8 8.3
2015-Jan-26 16:33N 51°58' E 005°18'3 2.6
2015-Jan-26 15:33N 51°57' E 005°22'3 3.1
2015-Jan-26 14:33N 51°59' E 005°17'8 8.0
2015-Jan-26 13:33N 52°03' E 005°06'2 1.8
2015-Jan-26 12:33N 52°05' E 005°05'0 0.0
2015-Jan-26 11:33N 52°05' E 005°05'0 0.1
2015-Jan-26 10:33N 52°04' E 005°05'1111.0
2015-Jan-26 09:33N 51°58' E 005°19'1111.0
2015-Jan-26 08:33N 52°04' E 005°05'0 0.1
2015-Jan-26 07:33N 52°05' E 005°05'0 0.0
2015-Jan-26 06:33N 52°05' E 005°05'0 0.0
2015-Jan-26 05:33N 52°05' E 005°05'0 0.0
2015-Jan-26 04:33N 52°05' E 005°05'0 0.0
2015-Jan-26 03:33N 52°05' E 005°05'0 0.0
2015-Jan-26 02:33N 52°05' E 005°05'0 0.0
2015-Jan-26 01:33N 52°05' E 005°05'0 0.0
2015-Jan-26 00:33N 52°05' E 005°05'0 0.0
2015-Jan-25 23:33N 52°05' E 005°05'0 0.0
2015-Jan-25 22:33N 52°05' E 005°05'0 0.0
2015-Jan-25 21:33N 52°05' E 005°05'0 0.0
2015-Jan-25 20:33N 52°05' E 005°05'0 0.0
2015-Jan-25 19:33N 52°05' E 005°05'0 0.0
2015-Jan-25 18:33N 52°05' E 005°05'0 0.0
2015-Jan-25 17:33N 52°05' E 005°05'0 0.0
2015-Jan-25 16:33N 52°05' E 005°05'0 0.0
2015-Jan-25 15:33N 52°05' E 005°05'1 1.0
2015-Jan-25 14:33N 52°04' E 005°06'6 5.8
2015-Jan-25 13:33N 51°60' E 005°13'5 4.5
2015-Jan-25 12:33N 51°58' E 005°20'5 5.2
2015-Jan-25 11:33N 51°55' E 005°26'0 0.0
2015-Jan-25 10:33N 51°55' E 005°26'0 0.0
2015-Jan-25 09:33N 51°55' E 005°26'0 0.0
2015-Jan-25 08:33N 51°55' E 005°26'0 0.0
2015-Jan-25 07:33N 51°55' E 005°26'0 0.0
2015-Jan-25 06:33N 51°55' E 005°26'0 0.0
2015-Jan-25 05:33N 51°55' E 005°26'0 0.0
2015-Jan-25 04:33N 51°55' E 005°26'0 0.0
2015-Jan-25 03:33N 51°55' E 005°26'0 0.0
2015-Jan-25 02:33N 51°55' E 005°26'0 0.0
2015-Jan-25 01:33N 51°55' E 005°26'0 0.0
2015-Jan-25 00:33N 51°55' E 005°26'0 0.0
2015-Jan-24 23:33N 51°55' E 005°26'0 0.0
2015-Jan-24 22:33N 51°55' E 005°26'0 0.0
2015-Jan-24 21:33N 51°55' E 005°26'0 0.0
2015-Jan-24 20:33N 51°55' E 005°26'0 0.0
2015-Jan-24 19:33N 51°55' E 005°26'0 0.0
2015-Jan-24 18:33N 51°55' E 005°26'0 0.0
2015-Jan-24 17:33N 51°55' E 005°26'0 0.0
2015-Jan-24 16:33N 51°55' E 005°26'0 0.0
2015-Jan-24 15:33N 51°55' E 005°26'1 0.5
2015-Jan-24 14:33N 51°55' E 005°27'1 1.5
2015-Jan-24 13:33N 51°53' E 005°28'9 9.1
2015-Jan-24 12:32N 51°53' E 005°44'10 7.5
2015-Jan-24 11:10N 51°53' E 006°00'7 7.6
2015-Jan-24 10:18N 51°50' E 006°10'6 8.5
2015-Jan-24 09:33N 51°48' E 006°19'34 6.3
2015-Jan-24 04:09N 51°17' E 006°42'3 5.8
2015-Jan-24 03:33N 51°14' E 006°45'6 5.5
2015-Jan-24 02:33N 51°09' E 006°49'15 6.8
2015-Jan-24 00:21N 50°55' E 006°58'109 6.4
2015-Jan-23 07:19N 49°23' E 008°30'5 6.9
2015-Jan-23 06:33N 49°18' E 008°29'8 8.4
2015-Jan-23 05:33N 49°11' E 008°23'9 9.2
2015-Jan-23 04:33N 49°02' E 008°18'9 9.1
2015-Jan-23 03:31N 48°55' E 008°09'5 5.2
2015-Jan-23 02:33N 48°50' E 008°07'6 5.9
2015-Jan-23 01:31N 48°46' E 008°00'6 5.6
2015-Jan-23 00:29N 48°41' E 007°55'6 0.1
2015-Jan-21 11:30N 48°46' E 007°59'8 5.3
2015-Jan-21 10:04N 48°51' E 008°07'4 5.7
2015-Jan-21 09:26N 48°55' E 008°09'5 5.4
2015-Jan-21 08:33N 48°58' E 008°14'4 4.2
2015-Jan-21 07:33N 49°01' E 008°19'0 0.2
2015-Jan-21 06:33N 49°01' E 008°18'0 0.0
2015-Jan-21 05:33N 49°01' E 008°18'0 0.0
2015-Jan-21 04:33N 49°01' E 008°18'0 0.0
2015-Jan-21 03:33N 49°01' E 008°18'0 0.0
2015-Jan-21 02:33N 49°01' E 008°18'0 0.0
2015-Jan-21 01:33N 49°01' E 008°18'0 0.0
2015-Jan-21 00:33N 49°01' E 008°18'0 0.0
2015-Jan-20 23:33N 49°01' E 008°18'0 0.0
2015-Jan-20 22:33N 49°01' E 008°18'0 0.0
2015-Jan-20 21:33N 49°01' E 008°18'0 0.0
2015-Jan-20 20:33N 49°01' E 008°18'0 0.0
2015-Jan-20 19:33N 49°01' E 008°18'0 0.0
2015-Jan-20 18:33N 49°01' E 008°18'0 0.0
2015-Jan-20 17:33N 49°01' E 008°18'0 0.0
2015-Jan-20 16:33N 49°01' E 008°18'0 0.0
2015-Jan-20 15:33N 49°01' E 008°18'0 0.0
2015-Jan-20 14:33N 49°01' E 008°18'0 0.0
2015-Jan-20 13:33N 49°01' E 008°18'0 0.0
2015-Jan-20 12:33N 49°01' E 008°18'0 0.0
2015-Jan-20 11:33N 49°01' E 008°18'0 0.0
2015-Jan-20 10:33N 49°01' E 008°18'0 0.0
2015-Jan-20 09:33N 49°01' E 008°18'0 0.0
2015-Jan-20 08:33N 49°01' E 008°18'0 0.0
2015-Jan-20 07:33N 49°01' E 008°18'0 0.0
2015-Jan-20 06:33N 49°01' E 008°18'0 0.0
2015-Jan-20 05:33N 49°01' E 008°18'0 0.0
2015-Jan-20 04:33N 49°01' E 008°18'0 0.0
2015-Jan-20 03:33N 49°01' E 008°18'0 0.0
2015-Jan-20 02:33N 49°01' E 008°18'0 0.0
2015-Jan-20 01:33N 49°01' E 008°18'0 0.0
2015-Jan-20 00:34N 49°01' E 008°18'0 0.0
2015-Jan-19 23:33N 49°01' E 008°18'0 0.0
2015-Jan-19 22:33N 49°01' E 008°18'0 0.0
2015-Jan-19 21:33N 49°01' E 008°18'0 0.0
2015-Jan-19 20:33N 49°01' E 008°18'0 0.0
2015-Jan-19 19:33N 49°01' E 008°18'0 0.0
2015-Jan-19 18:33N 49°01' E 008°18'0 0.0
2015-Jan-19 17:33N 49°01' E 008°18'0 0.0
2015-Jan-19 16:33N 49°01' E 008°18'0 0.1
2015-Jan-19 15:34N 49°01' E 008°18'1 1.3
2015-Jan-19 14:33N 49°01' E 008°20'0 0.0
2015-Jan-19 13:33N 49°01' E 008°20'0 0.0
2015-Jan-19 12:33N 49°01' E 008°20'0 0.0
2015-Jan-19 11:33N 49°01' E 008°20'0 0.0
2015-Jan-19 10:33N 49°01' E 008°20'0 0.0
2015-Jan-19 09:33N 49°01' E 008°20'0 0.0
2015-Jan-19 08:33N 49°01' E 008°20'  
Track history (hours):
 
Tides and Currents Weather Stations Pressure Air Temp Water Temp Dewpoint Dewpoint Depression Visibility Wind Speed Wind Dir Waves Ship Positions

Empire

Last reported at 2015-Jan-29 08:08 UTC. Time now 2015-Jan-29 18:29 UTC.
Position N 50°54' E 007°00'.

Length 183 m; draft 3 m.

Type: Ship. MMSI: 244670090.

Date/timePositionNaut miles runAvg speedWind from/ knotsBaromVisibWave heightAir tempDewpointWater temp
2015-Jan-29 08:08N 50°54' E 007°00'2 4.2
2015-Jan-29 07:33N 50°56' E 006°58'11 3.4
2015-Jan-29 04:24N 51°06' E 006°53'3 3.8
2015-Jan-29 03:31N 51°09' E 006°51'2 2.5
2015-Jan-29 02:33N 51°09' E 006°48'3 3.3
2015-Jan-29 01:34N 51°12' E 006°44'2 2.4
2015-Jan-29 00:33N 51°14' E 006°46'4 3.9
2015-Jan-28 23:33N 51°17' E 006°42'4 3.6
2015-Jan-28 22:29N 51°20' E 006°42'47 3.3
2015-Jan-28 08:19N 51°53' E 005°47'5 6.3
2015-Jan-28 07:32N 51°54' E 005°40'6 6.2
2015-Jan-28 06:33N 51°53' E 005°30'3 3.4
2015-Jan-28 05:34N 51°55' E 005°25'5 4.8
2015-Jan-28 04:34N 51°58' E 005°19'7 6.7
2015-Jan-28 03:34N 52°01' E 005°09'7 6.7
2015-Jan-28 02:34N 52°07' E 005°04'6 6.2
2015-Jan-28 01:33N 52°13' E 005°00'7 7.0
2015-Jan-28 00:34N 52°19' E 005°01'7 6.6
2015-Jan-27 23:34N 52°24' E 004°53'2 2.4
2015-Jan-27 22:34N 52°24' E 004°49'0 0.0
2015-Jan-27 21:34N 52°24' E 004°49'0 0.0
2015-Jan-27 20:33N 52°24' E 004°49'0 0.0
2015-Jan-27 19:33N 52°24' E 004°49'0 0.0
2015-Jan-27 18:34N 52°24' E 004°49'0 0.0
2015-Jan-27 17:33N 52°24' E 004°49'0 0.0
2015-Jan-27 16:33N 52°24' E 004°49'0 0.3
2015-Jan-27 15:34N 52°24' E 004°50'0 0.0
2015-Jan-27 14:33N 52°24' E 004°50'0 0.0
2015-Jan-27 13:34N 52°24' E 004°50'0 0.0
2015-Jan-27 12:33N 52°24' E 004°50'0 0.0
2015-Jan-27 11:34N 52°24' E 004°50'0 0.0
2015-Jan-27 10:33N 52°24' E 004°50'0 0.0
2015-Jan-27 09:33N 52°24' E 004°50'0 0.0
2015-Jan-27 08:33N 52°24' E 004°50'0 0.0
2015-Jan-27 07:34N 52°24' E 004°50'0 0.0
2015-Jan-27 06:34N 52°24' E 004°50'0 0.0
2015-Jan-27 05:33N 52°24' E 004°50'0 0.0
2015-Jan-27 04:34N 52°24' E 004°50'0 0.0
2015-Jan-27 03:34N 52°24' E 004°50'0 0.0
2015-Jan-27 02:34N 52°24' E 004°50'0 0.0
2015-Jan-27 01:34N 52°24' E 004°50'0 0.0
2015-Jan-27 00:33N 52°24' E 004°50'0 0.0
2015-Jan-26 23:33N 52°24' E 004°50'0 0.0
2015-Jan-26 22:33N 52°24' E 004°50'0 0.0
2015-Jan-26 21:33N 52°24' E 004°50'3 2.9
2015-Jan-26 20:33N 52°23' E 004°54'7 6.7
2015-Jan-26 19:33N 52°18' E 005°01'8 8.4
2015-Jan-26 18:33N 52°10' E 004°60'8 8.1
2015-Jan-26 17:33N 52°03' E 005°06'8 8.3
2015-Jan-26 16:33N 51°58' E 005°18'3 2.6
2015-Jan-26 15:33N 51°57' E 005°22'3 3.1
2015-Jan-26 14:33N 51°59' E 005°17'8 8.0
2015-Jan-26 13:33N 52°03' E 005°06'2 1.8
2015-Jan-26 12:33N 52°05' E 005°05'0 0.0
2015-Jan-26 11:33N 52°05' E 005°05'0 0.1
2015-Jan-26 10:33N 52°04' E 005°05'1111.0
2015-Jan-26 09:33N 51°58' E 005°19'1111.0
2015-Jan-26 08:33N 52°04' E 005°05'0 0.1
2015-Jan-26 07:33N 52°05' E 005°05'0 0.0
2015-Jan-26 06:33N 52°05' E 005°05'0 0.0
2015-Jan-26 05:33N 52°05' E 005°05'0 0.0
2015-Jan-26 04:33N 52°05' E 005°05'0 0.0
2015-Jan-26 03:33N 52°05' E 005°05'0 0.0
2015-Jan-26 02:33N 52°05' E 005°05'0 0.0
2015-Jan-26 01:33N 52°05' E 005°05'0 0.0
2015-Jan-26 00:33N 52°05' E 005°05'0 0.0
2015-Jan-25 23:33N 52°05' E 005°05'0 0.0
2015-Jan-25 22:33N 52°05' E 005°05'0 0.0
2015-Jan-25 21:33N 52°05' E 005°05'0 0.0
2015-Jan-25 20:33N 52°05' E 005°05'0 0.0
2015-Jan-25 19:33N 52°05' E 005°05'0 0.0
2015-Jan-25 18:33N 52°05' E 005°05'0 0.0
2015-Jan-25 17:33N 52°05' E 005°05'0 0.0
2015-Jan-25 16:33N 52°05' E 005°05'0 0.0
2015-Jan-25 15:33N 52°05' E 005°05'1 1.0
2015-Jan-25 14:33N 52°04' E 005°06'6 5.8
2015-Jan-25 13:33N 51°60' E 005°13'5 4.5
2015-Jan-25 12:33N 51°58' E 005°20'5 5.2
2015-Jan-25 11:33N 51°55' E 005°26'0 0.0
2015-Jan-25 10:33N 51°55' E 005°26'0 0.0
2015-Jan-25 09:33N 51°55' E 005°26'0 0.0
2015-Jan-25 08:33N 51°55' E 005°26'0 0.0
2015-Jan-25 07:33N 51°55' E 005°26'0 0.0
2015-Jan-25 06:33N 51°55' E 005°26'0 0.0
2015-Jan-25 05:33N 51°55' E 005°26'0 0.0
2015-Jan-25 04:33N 51°55' E 005°26'0 0.0
2015-Jan-25 03:33N 51°55' E 005°26'0 0.0
2015-Jan-25 02:33N 51°55' E 005°26'0 0.0
2015-Jan-25 01:33N 51°55' E 005°26'0 0.0
2015-Jan-25 00:33N 51°55' E 005°26'0 0.0
2015-Jan-24 23:33N 51°55' E 005°26'0 0.0
2015-Jan-24 22:33N 51°55' E 005°26'0 0.0
2015-Jan-24 21:33N 51°55' E 005°26'0 0.0
2015-Jan-24 20:33N 51°55' E 005°26'0 0.0
2015-Jan-24 19:33N 51°55' E 005°26'0 0.0
2015-Jan-24 18:33N 51°55' E 005°26'0 0.0
2015-Jan-24 17:33N 51°55' E 005°26'0 0.0
2015-Jan-24 16:33N 51°55' E 005°26'0 0.0
2015-Jan-24 15:33N 51°55' E 005°26'1 0.5
2015-Jan-24 14:33N 51°55' E 005°27'1 1.5
2015-Jan-24 13:33N 51°53' E 005°28'9 9.1
2015-Jan-24 12:32N 51°53' E 005°44'10 7.5
2015-Jan-24 11:10N 51°53' E 006°00'7 7.6
2015-Jan-24 10:18N 51°50' E 006°10'6 8.5
2015-Jan-24 09:33N 51°48' E 006°19'34 6.3
2015-Jan-24 04:09N 51°17' E 006°42'3 5.8
2015-Jan-24 03:33N 51°14' E 006°45'6 5.5
2015-Jan-24 02:33N 51°09' E 006°49'15 6.8
2015-Jan-24 00:21N 50°55' E 006°58'109 6.4
2015-Jan-23 07:19N 49°23' E 008°30'5 6.9
2015-Jan-23 06:33N 49°18' E 008°29'8 8.4
2015-Jan-23 05:33N 49°11' E 008°23'9 9.2
2015-Jan-23 04:33N 49°02' E 008°18'9 9.1
2015-Jan-23 03:31N 48°55' E 008°09'5 5.2
2015-Jan-23 02:33N 48°50' E 008°07'6 5.9
2015-Jan-23 01:31N 48°46' E 008°00'6 5.6
2015-Jan-23 00:29N 48°41' E 007°55'6 0.1
2015-Jan-21 11:30N 48°46' E 007°59'8 5.3
2015-Jan-21 10:04N 48°51' E 008°07'4 5.7
2015-Jan-21 09:26N 48°55' E 008°09'5 5.4
2015-Jan-21 08:33N 48°58' E 008°14'4 4.2
2015-Jan-21 07:33N 49°01' E 008°19'0 0.2
2015-Jan-21 06:33N 49°01' E 008°18'0 0.0
2015-Jan-21 05:33N 49°01' E 008°18'0 0.0
2015-Jan-21 04:33N 49°01' E 008°18'0 0.0
2015-Jan-21 03:33N 49°01' E 008°18'0 0.0
2015-Jan-21 02:33N 49°01' E 008°18'0 0.0
2015-Jan-21 01:33N 49°01' E 008°18'0 0.0
2015-Jan-21 00:33N 49°01' E 008°18'0 0.0
2015-Jan-20 23:33N 49°01' E 008°18'0 0.0
2015-Jan-20 22:33N 49°01' E 008°18'0 0.0
2015-Jan-20 21:33N 49°01' E 008°18'0 0.0
2015-Jan-20 20:33N 49°01' E 008°18'0 0.0
2015-Jan-20 19:33N 49°01' E 008°18'0 0.0
2015-Jan-20 18:33N 49°01' E 008°18'0 0.0
2015-Jan-20 17:33N 49°01' E 008°18'0 0.0
2015-Jan-20 16:33N 49°01' E 008°18'0 0.0
2015-Jan-20 15:33N 49°01' E 008°18'0 0.0
2015-Jan-20 14:33N 49°01' E 008°18'0 0.0
2015-Jan-20 13:33N 49°01' E 008°18'0 0.0
2015-Jan-20 12:33N 49°01' E 008°18'0 0.0
2015-Jan-20 11:33N 49°01' E 008°18'0 0.0
2015-Jan-20 10:33N 49°01' E 008°18'0 0.0
2015-Jan-20 09:33N 49°01' E 008°18'0 0.0
2015-Jan-20 08:33N 49°01' E 008°18'0 0.0
2015-Jan-20 07:33N 49°01' E 008°18'0 0.0
2015-Jan-20 06:33N 49°01' E 008°18'0 0.0
2015-Jan-20 05:33N 49°01' E 008°18'0 0.0
2015-Jan-20 04:33N 49°01' E 008°18'0 0.0
2015-Jan-20 03:33N 49°01' E 008°18'0 0.0
2015-Jan-20 02:33N 49°01' E 008°18'0 0.0
2015-Jan-20 01:33N 49°01' E 008°18'0 0.0
2015-Jan-20 00:34N 49°01' E 008°18'0 0.0
2015-Jan-19 23:33N 49°01' E 008°18'0 0.0
2015-Jan-19 22:33N 49°01' E 008°18'0 0.0
2015-Jan-19 21:33N 49°01' E 008°18'0 0.0
2015-Jan-19 20:33N 49°01' E 008°18'0 0.0
2015-Jan-19 19:33N 49°01' E 008°18'0 0.0
2015-Jan-19 18:33N 49°01' E 008°18'0 0.0
2015-Jan-19 17:33N 49°01' E 008°18'0 0.0
2015-Jan-19 16:33N 49°01' E 008°18'0 0.1
2015-Jan-19 15:34N 49°01' E 008°18'1 1.3
2015-Jan-19 14:33N 49°01' E 008°20'0 0.0
2015-Jan-19 13:33N 49°01' E 008°20'0 0.0
2015-Jan-19 12:33N 49°01' E 008°20'0 0.0
2015-Jan-19 11:33N 49°01' E 008°20'0 0.0
2015-Jan-19 10:33N 49°01' E 008°20'0 0.0
2015-Jan-19 09:33N 49°01' E 008°20'0 0.0
2015-Jan-19 08:33N 49°01' E 008°20'  

Dump ship's entire track history